Lady Doris — WDJ5328 — position and weather

sailwx.info

Track history (hours):
 
Tides and Currents Weather Stations Pressure Air Temp Water Temp Dewpoint Dewpoint Depression Visibility Wind Speed Wind Dir Waves Ship Positions

Lady Doris

Owner: Lady Doris Charters, LLC, Miami Beach, FL. More information available from US FCC via Universal Licensing System and Coast Guard Vessel Documentation Center.

Last reported at 2018-Feb-14 22:09 UTC. Time now 2018-Feb-18 04:41 UTC.
Position N 25°48' W 080°09'.

; draft 1.9 m.

MMSI: 369265000.

Date/timePositionNaut miles runAvg speedWind from/ knotsBaromVisibWave heightAir tempDewpointWater temp
2018-Feb-14 22:09N 25°48' W 080°09'0 3.3
2018-Feb-14 22:00N 25°47' W 080°09'2 4.0
2018-Feb-14 21:30N 25°46' W 080°11'5 9.4
2018-Feb-14 21:00N 25°42' W 080°11'0 0.0
2018-Feb-14 20:16N 25°42' W 080°11'0 0.0
2018-Feb-14 19:55N 25°42' W 080°11'0 0.0
2018-Feb-14 19:25N 25°42' W 080°11'0 0.0
2018-Feb-14 18:52N 25°42' W 080°11'0 0.0
2018-Feb-14 18:28N 25°42' W 080°11'0 0.0
2018-Feb-14 17:52N 25°42' W 080°11'0 1.4
2018-Feb-14 17:31N 25°42' W 080°11'4 8.6
2018-Feb-14 17:00N 25°46' W 080°10'2 3.3
2018-Feb-14 16:30N 25°48' W 080°09'0 0.8
2018-Feb-14 16:00N 25°48' W 080°09'0 0.0
2018-Feb-14 15:30N 25°48' W 080°09'0 0.0
2018-Feb-14 15:00N 25°48' W 080°09'0 0.0
2018-Feb-14 14:29N 25°48' W 080°09'  
2018-Feb-12 00:00N 25°48' W 080°09'2 3.9
2018-Feb-11 23:30N 25°49' W 080°11'3 5.8
2018-Feb-11 22:59N 25°52' W 080°10'2 4.0
2018-Feb-11 22:30N 25°53' W 080°08'4 7.5
2018-Feb-11 22:01N 25°57' W 080°08'4 7.3
2018-Feb-11 21:30N 26°01' W 080°07'2 4.9
2018-Feb-11 21:00N 26°03' W 080°07'2 4.1
2018-Feb-11 20:30N 26°05' W 080°07'1 0.2
2018-Feb-11 16:27N 26°06' W 080°07'0 0.0
2018-Feb-11 00:14N 26°06' W 080°07'0 0.3
2018-Feb-11 00:00N 26°06' W 080°07'1 2.6
2018-Feb-10 23:30N 26°07' W 080°06'1 2.5
2018-Feb-10 23:00N 26°06' W 080°07'3 6.4
2018-Feb-10 22:31N 26°03' W 080°07'2 4.6
2018-Feb-10 22:00N 26°01' W 080°07'0 0.0
2018-Feb-10 21:30N 26°01' W 080°07'0 0.0
2018-Feb-10 21:00N 26°01' W 080°07'0 0.0
2018-Feb-10 20:30N 26°01' W 080°07'0 0.3
2018-Feb-10 20:01N 26°01' W 080°07'3 5.7
2018-Feb-10 19:31N 25°58' W 080°07'4 7.1
2018-Feb-10 19:00N 25°54' W 080°08'4 7.2
2018-Feb-10 18:30N 25°51' W 080°10'4 7.6
2018-Feb-10 18:01N 25°48' W 080°11'2 3.7
2018-Feb-10 17:30N 25°48' W 080°09'0 0.0
2018-Feb-10 17:00N 25°48' W 080°09'0 0.0
2018-Feb-10 16:19N 25°48' W 080°09'0 0.0
2018-Feb-10 15:58N 25°48' W 080°09'  
Track history (hours):
 
Tides and Currents Weather Stations Pressure Air Temp Water Temp Dewpoint Dewpoint Depression Visibility Wind Speed Wind Dir Waves Ship Positions

Lady Doris

Owner: Lady Doris Charters, LLC, Miami Beach, FL. More information available from US FCC via Universal Licensing System and Coast Guard Vessel Documentation Center.

Last reported at 2018-Feb-14 22:09 UTC. Time now 2018-Feb-18 04:41 UTC.
Position N 25°48' W 080°09'.

; draft 1.9 m.

MMSI: 369265000.

Date/timePositionNaut miles runAvg speedWind from/ knotsBaromVisibWave heightAir tempDewpointWater temp
2018-Feb-14 22:09N 25°48' W 080°09'0 3.3
2018-Feb-14 22:00N 25°47' W 080°09'2 4.0
2018-Feb-14 21:30N 25°46' W 080°11'5 9.4
2018-Feb-14 21:00N 25°42' W 080°11'0 0.0
2018-Feb-14 20:16N 25°42' W 080°11'0 0.0
2018-Feb-14 19:55N 25°42' W 080°11'0 0.0
2018-Feb-14 19:25N 25°42' W 080°11'0 0.0
2018-Feb-14 18:52N 25°42' W 080°11'0 0.0
2018-Feb-14 18:28N 25°42' W 080°11'0 0.0
2018-Feb-14 17:52N 25°42' W 080°11'0 1.4
2018-Feb-14 17:31N 25°42' W 080°11'4 8.6
2018-Feb-14 17:00N 25°46' W 080°10'2 3.3
2018-Feb-14 16:30N 25°48' W 080°09'0 0.8
2018-Feb-14 16:00N 25°48' W 080°09'0 0.0
2018-Feb-14 15:30N 25°48' W 080°09'0 0.0
2018-Feb-14 15:00N 25°48' W 080°09'0 0.0
2018-Feb-14 14:29N 25°48' W 080°09'  
2018-Feb-12 00:00N 25°48' W 080°09'2 3.9
2018-Feb-11 23:30N 25°49' W 080°11'3 5.8
2018-Feb-11 22:59N 25°52' W 080°10'2 4.0
2018-Feb-11 22:30N 25°53' W 080°08'4 7.5
2018-Feb-11 22:01N 25°57' W 080°08'4 7.3
2018-Feb-11 21:30N 26°01' W 080°07'2 4.9
2018-Feb-11 21:00N 26°03' W 080°07'2 4.1
2018-Feb-11 20:30N 26°05' W 080°07'1 0.2
2018-Feb-11 16:27N 26°06' W 080°07'0 0.0
2018-Feb-11 00:14N 26°06' W 080°07'0 0.3
2018-Feb-11 00:00N 26°06' W 080°07'1 2.6
2018-Feb-10 23:30N 26°07' W 080°06'1 2.5
2018-Feb-10 23:00N 26°06' W 080°07'3 6.4
2018-Feb-10 22:31N 26°03' W 080°07'2 4.6
2018-Feb-10 22:00N 26°01' W 080°07'0 0.0
2018-Feb-10 21:30N 26°01' W 080°07'0 0.0
2018-Feb-10 21:00N 26°01' W 080°07'0 0.0
2018-Feb-10 20:30N 26°01' W 080°07'0 0.3
2018-Feb-10 20:01N 26°01' W 080°07'3 5.7
2018-Feb-10 19:31N 25°58' W 080°07'4 7.1
2018-Feb-10 19:00N 25°54' W 080°08'4 7.2
2018-Feb-10 18:30N 25°51' W 080°10'4 7.6
2018-Feb-10 18:01N 25°48' W 080°11'2 3.7
2018-Feb-10 17:30N 25°48' W 080°09'0 0.0
2018-Feb-10 17:00N 25°48' W 080°09'0 0.0
2018-Feb-10 16:19N 25°48' W 080°09'0 0.0
2018-Feb-10 15:58N 25°48' W 080°09'  

Dump ship's entire track history